Time;durP1;ratioP1;P1;durP2;ratioP2;P2;SDS_P1;SDS_P2;PMS_P1;PMS_P2;Temp;Humidity;BMP_temperature;BMP_pressure;BME280_temperature;BME280_humidity;BME280_pressure;Samples;Min_cycle;Max_cycle;Signal;HPM_P1;HPM_P2
2021/03/19 00:00:54;;;;;;;12.43;9.50;;;;;21.40;100773.00;;;;2078344;28;20214;-47
2021/03/19 00:01:54;;;;;;;10.17;8.90;;;;;21.30;100773.00;;;;2078638;28;20710;-45
2021/03/19 00:02:55;;;;;;;10.73;9.63;;;;;21.30;100783.00;;;;2078258;28;20695;-48
2021/03/19 00:03:55;;;;;;;9.23;8.27;;;;;21.30;100766.00;;;;2076175;28;20222;-50
2021/03/19 00:04:56;;;;;;;9.30;8.37;;;;;21.30;100772.00;;;;2077528;28;20214;-46
2021/03/19 00:05:56;;;;;;;9.40;8.50;;;;;21.30;100774.00;;;;2078081;28;20218;-44
2021/03/19 00:06:56;;;;;;;9.50;8.23;;;;;21.30;100773.00;;;;2076603;28;20703;-45
2021/03/19 00:07:57;;;;;;;10.57;9.30;;;;;21.30;100774.00;;;;2076732;28;20233;-44
2021/03/19 00:08:58;;;;;;;9.05;8.15;;;;;21.30;100773.00;;;;2075293;28;20591;-49
2021/03/19 00:09:58;;;;;;;11.40;8.47;;;;;21.20;100780.00;;;;2078417;28;20210;-50
2021/03/19 00:10:58;;;;;;;10.73;8.80;;;;;21.30;100784.00;;;;2078389;28;20218;-48
2021/03/19 00:11:59;;;;;;;11.20;7.87;;;;;21.30;100783.00;;;;2078600;28;20234;-47
2021/03/19 00:13:02;;;;;;;9.87;7.63;;;;;21.30;100781.00;;;;2078335;28;20218;-49
2021/03/19 00:14:03;;;;;;;7.95;7.18;;;;;21.30;100777.00;;;;2076283;28;20218;-45
2021/03/19 00:15:04;;;;;;;11.05;8.18;;;;;21.30;100776.00;;;;2078598;28;21179;-44
2021/03/19 00:16:05;;;;;;;8.20;7.40;;;;;21.30;100783.00;;;;2077253;28;20228;-45
2021/03/19 00:17:05;;;;;;;8.97;8.07;;;;;21.20;100785.00;;;;2078860;28;20459;-45
2021/03/19 00:18:06;;;;;;;8.87;8.00;;;;;21.20;100785.00;;;;2079396;28;20264;-44
2021/03/19 00:19:07;;;;;;;7.50;6.80;;;;;21.20;100786.00;;;;2077442;28;20226;-45
2021/03/19 00:20:08;;;;;;;8.53;7.50;;;;;21.20;100785.00;;;;2079454;28;20224;-49
2021/03/19 00:21:08;;;;;;;8.00;7.18;;;;;21.20;100789.00;;;;2080004;28;20892;-48
2021/03/19 00:22:09;;;;;;;8.37;7.57;;;;;21.20;100791.00;;;;2079938;28;20244;-45
2021/03/19 00:23:09;;;;;;;8.30;7.50;;;;;21.20;100785.00;;;;2079891;28;20706;-46
2021/03/19 00:24:10;;;;;;;7.70;7.00;;;;;21.20;100782.00;;;;2070937;28;20628;-46
2021/03/19 00:25:11;;;;;;;8.60;7.53;;;;;21.20;100787.00;;;;2072980;28;20217;-46
2021/03/19 00:26:11;;;;;;;7.28;6.57;;;;;21.20;100790.00;;;;2079271;28;20244;-44
2021/03/19 00:27:11;;;;;;;7.37;6.30;;;;;21.20;100799.00;;;;2079267;28;20556;-43
2021/03/19 00:28:15;;;;;;;7.87;6.77;;;;;21.20;100796.00;;;;2078587;28;20260;-48
2021/03/19 00:29:15;;;;;;;7.75;6.97;;;;;21.20;100794.00;;;;2074608;28;20218;-47
2021/03/19 00:30:16;;;;;;;8.43;7.63;;;;;21.10;100791.00;;;;2079505;28;20590;-45
2021/03/19 00:31:16;;;;;;;8.70;7.13;;;;;21.10;100788.00;;;;2078952;28;20217;-47
2021/03/19 00:32:16;;;;;;;7.87;7.17;;;;;21.20;100801.00;;;;2079357;28;20730;-46
2021/03/19 00:33:17;;;;;;;8.57;7.60;;;;;21.10;100792.00;;;;2076889;28;20286;-51
2021/03/19 00:34:17;;;;;;;8.27;7.40;;;;;21.10;100795.00;;;;2079399;28;20231;-48
2021/03/19 00:35:18;;;;;;;7.83;6.87;;;;;21.10;100798.00;;;;2078779;28;20237;-45
2021/03/19 00:36:18;;;;;;;6.73;6.03;;;;;21.10;100787.00;;;;2078757;28;20703;-45
2021/03/19 00:37:18;;;;;;;7.13;6.53;;;;;21.10;100803.00;;;;2078508;28;20595;-49
2021/03/19 00:38:19;;;;;;;7.03;6.30;;;;;21.10;100800.00;;;;2078722;28;20308;-45
2021/03/19 00:39:19;;;;;;;7.87;6.83;;;;;21.10;100797.00;;;;2079104;28;20222;-49
2021/03/19 00:40:19;;;;;;;6.77;6.17;;;;;21.10;100806.00;;;;2079354;28;20222;-48
2021/03/19 00:41:20;;;;;;;7.40;6.57;;;;;21.10;100808.00;;;;2079469;28;20217;-45
2021/03/19 00:42:20;;;;;;;7.30;6.53;;;;;21.10;100802.00;;;;2079540;28;20249;-46
2021/03/19 00:43:21;;;;;;;7.60;6.90;;;;;21.10;100811.00;;;;2078634;28;20276;-45
2021/03/19 00:44:21;;;;;;;6.70;6.00;;;;;21.10;100806.00;;;;2079402;28;20206;-45
2021/03/19 00:45:23;;;;;;;7.03;6.43;;;;;21.10;100803.00;;;;2079975;28;20213;-45
2021/03/19 00:46:23;;;;;;;7.15;6.53;;;;;21.10;100811.00;;;;2080071;28;20210;-44
2021/03/19 00:47:23;;;;;;;6.40;5.80;;;;;21.10;100812.00;;;;2079836;28;20263;-45
2021/03/19 00:48:24;;;;;;;6.47;5.87;;;;;21.10;100818.00;;;;2078944;28;20297;-44
2021/03/19 00:49:24;;;;;;;6.00;5.40;;;;;21.10;100810.00;;;;2079862;28;20214;-45
2021/03/19 00:50:29;;;;;;;7.23;6.07;;;;;21.10;100808.00;;;;2080058;28;20718;-48
2021/03/19 00:51:30;;;;;;;6.55;5.97;;;;;21.10;100808.00;;;;2078983;28;20683;-44
2021/03/19 00:52:30;;;;;;;6.50;5.90;;;;;21.10;100801.00;;;;2079607;28;20218;-45
2021/03/19 00:53:30;;;;;;;6.60;6.00;;;;;21.00;100811.00;;;;2079628;28;20309;-44
2021/03/19 00:54:31;;;;;;;7.90;5.50;;;;;21.10;100805.00;;;;2079944;28;20221;-49
2021/03/19 00:55:32;;;;;;;6.63;6.00;;;;;21.00;100804.00;;;;2079647;28;20203;-45
2021/03/19 00:56:32;;;;;;;6.37;5.87;;;;;21.00;100802.00;;;;2081246;28;20463;-44
2021/03/19 00:57:33;;;;;;;7.37;6.47;;;;;21.00;100802.00;;;;2088125;28;20234;-45
2021/03/19 00:58:33;;;;;;;6.43;5.83;;;;;21.00;100805.00;;;;2082731;28;20212;-46
2021/03/19 00:59:33;;;;;;;7.43;5.37;;;;;21.00;100806.00;;;;2088071;28;20487;-45
2021/03/19 01:00:35;;;;;;;6.67;6.03;;;;;21.00;100808.00;;;;2088111;28;20251;-44
2021/03/19 01:01:35;;;;;;;6.10;5.55;;;;;21.00;100803.00;;;;2087529;28;20248;-46
2021/03/19 01:02:36;;;;;;;6.27;5.67;;;;;21.00;100805.00;;;;2079173;28;20210;-45
2021/03/19 01:03:36;;;;;;;6.53;5.93;;;;;21.00;100802.00;;;;2086459;28;20209;-45
2021/03/19 01:04:36;;;;;;;7.80;5.90;;;;;21.00;100803.00;;;;2087635;28;20275;-45
2021/03/19 01:05:39;;;;;;;6.03;5.50;;;;;21.00;100799.00;;;;2087689;28;20863;-51
2021/03/19 01:06:39;;;;;;;5.38;4.95;;;;;21.00;100797.00;;;;2087477;28;20224;-50
2021/03/19 01:07:40;;;;;;;6.23;5.63;;;;;20.90;100803.00;;;;2087360;28;20233;-47
2021/03/19 01:08:40;;;;;;;6.53;6.03;;;;;21.00;100798.00;;;;2083313;28;20225;-46
2021/03/19 01:09:40;;;;;;;8.00;6.47;;;;;21.00;100793.00;;;;2087582;28;20218;-44
2021/03/19 01:10:46;;;;;;;6.07;5.57;;;;;21.00;100790.00;;;;2087244;28;20209;-45
2021/03/19 01:11:46;;;;;;;5.90;5.35;;;;;20.90;100799.00;;;;2087480;28;20216;-45
2021/03/19 01:12:47;;;;;;;6.00;5.40;;;;;20.90;100802.00;;;;2087276;28;20232;-45
2021/03/19 01:13:47;;;;;;;5.07;4.60;;;;;20.90;100797.00;;;;2085027;28;20322;-45
2021/03/19 01:14:47;;;;;;;6.27;5.67;;;;;21.00;100798.00;;;;2087690;28;20220;-47
2021/03/19 01:15:48;;;;;;;6.10;5.60;;;;;21.00;100807.00;;;;2087594;28;20217;-49
2021/03/19 01:16:48;;;;;;;6.27;5.50;;;;;20.90;100802.00;;;;2086353;28;20225;-47
2021/03/19 01:17:49;;;;;;;5.40;4.90;;;;;20.90;100812.00;;;;2087477;28;20225;-46
2021/03/19 01:18:49;;;;;;;5.40;4.87;;;;;20.90;100809.00;;;;2086600;28;20209;-44
2021/03/19 01:19:49;;;;;;;5.67;5.17;;;;;20.90;100809.00;;;;2087040;28;20231;-47
2021/03/19 01:20:50;;;;;;;5.70;5.20;;;;;20.90;100804.00;;;;2086643;28;20611;-49
2021/03/19 01:21:50;;;;;;;6.40;5.83;;;;;20.90;100805.00;;;;2087174;28;20224;-49
2021/03/19 01:22:51;;;;;;;6.20;5.30;;;;;20.90;100805.00;;;;2087280;28;20224;-45
2021/03/19 01:23:51;;;;;;;5.37;4.97;;;;;20.90;100816.00;;;;2086781;28;20267;-48
2021/03/19 01:24:51;;;;;;;6.47;5.83;;;;;20.90;100818.00;;;;2079097;28;20218;-45
2021/03/19 01:25:52;;;;;;;5.43;5.03;;;;;20.90;100821.00;;;;2078305;28;20217;-48
2021/03/19 01:26:52;;;;;;;5.50;5.00;;;;;20.90;100820.00;;;;2078617;28;20210;-47
2021/03/19 01:27:52;;;;;;;5.83;5.27;;;;;20.90;100819.00;;;;2078717;28;20214;-48
2021/03/19 01:28:53;;;;;;;4.80;4.40;;;;;20.90;100819.00;;;;2075927;28;20263;-46
2021/03/19 01:29:53;;;;;;;5.23;4.80;;;;;20.90;100814.00;;;;2079385;28;20222;-45
2021/03/19 01:30:53;;;;;;;5.70;5.20;;;;;20.90;100817.00;;;;2078797;28;20206;-44
2021/03/19 01:31:54;;;;;;;6.07;5.47;;;;;20.90;100823.00;;;;2079197;28;20221;-48
2021/03/19 01:32:54;;;;;;;5.03;4.63;;;;;20.90;100826.00;;;;2079044;28;20225;-47
2021/03/19 01:33:55;;;;;;;5.40;4.90;;;;;20.90;100823.00;;;;2071096;28;20216;-45
2021/03/19 01:34:55;;;;;;;5.47;4.93;;;;;20.90;100819.00;;;;2087138;28;20297;-45
2021/03/19 01:35:55;;;;;;;6.40;4.93;;;;;20.90;100817.00;;;;2083827;28;20218;-47
2021/03/19 01:36:56;;;;;;;5.33;4.83;;;;;20.90;100823.00;;;;2079087;28;20260;-47
2021/03/19 01:37:56;;;;;;;5.63;4.73;;;;;20.90;100824.00;;;;2078593;28;20703;-47
2021/03/19 01:38:56;;;;;;;5.10;4.60;;;;;20.80;100826.00;;;;2079312;28;20241;-48
2021/03/19 01:39:57;;;;;;;5.07;4.67;;;;;20.80;100824.00;;;;2079908;28;20740;-44
2021/03/19 01:40:57;;;;;;;5.57;5.07;;;;;20.80;100828.00;;;;2079734;28;20218;-49
2021/03/19 01:41:58;;;;;;;4.97;4.57;;;;;20.80;100829.00;;;;2079717;28;20218;-45
2021/03/19 01:43:13;;;;;;;5.73;4.90;;;;;20.80;100833.00;;;;2079442;28;20222;-49
2021/03/19 01:44:16;;;;;;;4.88;4.47;;;;;20.80;100836.00;;;;2075304;28;20674;-45
2021/03/19 01:45:54;;;;;;;4.93;4.50;;;;;20.80;100837.00;;;;2079544;28;20276;-45
2021/03/19 01:47:32;;;;;;;4.38;3.97;;;;;20.80;100836.00;;;;2077909;28;20216;-49
2021/03/19 01:49:10;;;;;;;5.90;4.38;;;;;20.80;100844.00;;;;2074948;28;20230;-49
2021/03/19 01:50:47;;;;;;;4.63;4.22;;;;;20.80;100758.00;;;;2078604;28;20630;-45
2021/03/19 01:52:25;;;;;;;4.65;4.25;;;;;20.80;100844.00;;;;2078235;28;20340;-52
2021/03/19 01:54:03;;;;;;;4.45;4.05;;;;;20.80;100838.00;;;;2078522;28;20222;-45
2021/03/19 01:55:42;;;;;;;4.43;4.03;;;;;20.80;100838.00;;;;2076394;28;20749;-44
2021/03/19 01:57:19;;;;;;;5.10;4.60;;;;;20.80;100843.00;;;;2086259;28;20256;-44
2021/03/19 01:58:57;;;;;;;4.68;4.28;;;;;20.70;100849.00;;;;2078261;28;20670;-44
2021/03/19 02:00:34;;;;;;;5.05;4.65;;;;;20.70;100837.00;;;;2079345;28;20224;-45
2021/03/19 02:02:12;;;;;;;4.40;4.00;;;;;20.80;100844.00;;;;2078955;28;20222;-47
2021/03/19 02:03:50;;;;;;;4.78;4.38;;;;;20.70;100847.00;;;;2079229;28;20686;-50
2021/03/19 02:05:28;;;;;;;3.95;3.65;;;;;20.70;100839.00;;;;2079202;28;20702;-44
2021/03/19 02:07:05;;;;;;;4.65;4.20;;;;;20.70;100835.00;;;;2078773;28;21167;-47
2021/03/19 02:08:43;;;;;;;5.40;4.30;;;;;20.70;100845.00;;;;2077827;28;20222;-44
2021/03/19 02:10:21;;;;;;;4.95;4.45;;;;;20.70;100845.00;;;;2079208;28;20202;-45
2021/03/19 02:11:59;;;;;;;3.80;3.50;;;;;20.70;100839.00;;;;2079122;28;20623;-47
2021/03/19 02:13:36;;;;;;;4.40;4.00;;;;;20.70;100853.00;;;;2079057;28;20718;-47
2021/03/19 02:15:14;;;;;;;4.43;4.03;;;;;20.70;100846.00;;;;2078957;28;20210;-44
2021/03/19 02:16:52;;;;;;;4.45;4.13;;;;;20.70;100849.00;;;;2079169;28;20214;-44
2021/03/19 02:18:49;;;;;;;4.10;3.30;;;;;20.70;100849.00;;;;2079072;28;20217;-48
2021/03/19 02:20:27;;;;;;;3.83;3.53;;;;;20.70;100844.00;;;;2086140;28;20245;-48
2021/03/19 02:22:04;;;;;;;4.20;3.80;;;;;20.70;100855.00;;;;2086065;28;20287;-44
2021/03/19 02:23:42;;;;;;;4.03;3.72;;;;;20.70;100845.00;;;;2086243;28;20807;-44
2021/03/19 02:25:20;;;;;;;3.72;3.42;;;;;20.70;100850.00;;;;2084847;28;20210;-45
2021/03/19 02:26:58;;;;;;;3.85;3.55;;;;;20.70;100815.00;;;;2078688;28;20567;-45
2021/03/19 02:28:35;;;;;;;3.75;3.45;;;;;20.70;100861.00;;;;2074405;28;20222;-45
2021/03/19 02:30:15;;;;;;;3.80;3.50;;;;;20.60;100859.00;;;;2078006;28;20312;-47
2021/03/19 02:31:15;;;;;;;6.15;3.90;;;;;20.60;100855.00;;;;2078436;28;20659;-47
2021/03/19 02:32:25;;;;;;;3.40;3.10;;;;;20.60;100857.00;;;;2078749;28;20212;-45
2021/03/19 02:33:26;;;;;;;4.10;3.70;;;;;20.60;100861.00;;;;2078417;28;20214;-48
2021/03/19 02:34:54;;;;;;;4.37;3.97;;;;;20.60;100858.00;;;;2077449;28;20202;-45
2021/03/19 02:35:56;;;;;;;3.95;3.65;;;;;20.60;100861.00;;;;2077675;28;20238;-45
2021/03/19 02:36:57;;;;;;;3.38;3.13;;;;;20.60;100855.00;;;;2078908;28;20225;-46
2021/03/19 02:37:57;;;;;;;4.23;3.83;;;;;20.60;100859.00;;;;2078090;28;20316;-49
2021/03/19 02:38:57;;;;;;;3.80;3.50;;;;;20.60;100855.00;;;;2079086;28;20307;-46
2021/03/19 02:39:58;;;;;;;3.20;3.00;;;;;20.60;100860.00;;;;2078857;28;20224;-49
2021/03/19 02:40:58;;;;;;;3.50;3.20;;;;;20.60;100857.00;;;;2079143;28;20209;-45
2021/03/19 02:42:00;;;;;;;3.73;3.43;;;;;20.60;100855.00;;;;2079138;28;20675;-45
2021/03/19 02:43:01;;;;;;;3.65;3.15;;;;;20.60;100860.00;;;;2078502;28;20218;-45
2021/03/19 02:44:01;;;;;;;3.70;3.40;;;;;20.60;100862.00;;;;2078068;28;20725;-45
2021/03/19 02:45:04;;;;;;;4.80;3.30;;;;;20.60;100873.00;;;;2078041;28;20218;-46
2021/03/19 02:46:04;;;;;;;3.75;3.38;;;;;20.60;100870.00;;;;2079055;28;20218;-49
2021/03/19 02:47:05;;;;;;;3.13;2.83;;;;;20.60;100870.00;;;;2078540;28;20214;-45
2021/03/19 02:48:05;;;;;;;3.17;2.90;;;;;20.60;100865.00;;;;2077113;28;20663;-45
2021/03/19 02:49:06;;;;;;;3.10;2.80;;;;;20.60;100874.00;;;;2079053;28;20217;-45
2021/03/19 02:50:07;;;;;;;3.93;3.63;;;;;20.50;100872.00;;;;2078837;28;20559;-48
2021/03/19 02:51:08;;;;;;;3.42;3.10;;;;;20.60;100872.00;;;;2078542;28;20222;-46
2021/03/19 02:52:08;;;;;;;3.40;3.10;;;;;20.60;100875.00;;;;2078068;28;20742;-49
2021/03/19 02:53:20;;;;;;;3.33;3.10;;;;;20.50;100874.00;;;;2079014;28;20218;-47
2021/03/19 02:54:21;;;;;;;3.03;2.83;;;;;20.60;100876.00;;;;2078890;28;20983;-45
2021/03/19 02:55:21;;;;;;;3.78;3.45;;;;;20.60;100873.00;;;;2078350;28;20214;-44
2021/03/19 02:56:21;;;;;;;3.47;3.17;;;;;20.60;100875.00;;;;2078344;28;20214;-44
2021/03/19 02:57:22;;;;;;;3.57;3.27;;;;;20.50;100879.00;;;;2078790;28;20683;-45
2021/03/19 02:58:22;;;;;;;3.30;3.00;;;;;20.60;100872.00;;;;2077929;28;20206;-44
2021/03/19 02:59:23;;;;;;;3.40;3.10;;;;;20.50;100872.00;;;;2078852;28;20217;-46
2021/03/19 03:00:24;;;;;;;3.07;2.77;;;;;20.60;100875.00;;;;2078906;28;20610;-44
2021/03/19 03:01:25;;;;;;;3.63;3.13;;;;;20.60;100874.00;;;;2078936;28;20541;-47
2021/03/19 03:02:25;;;;;;;3.70;3.40;;;;;20.60;100874.00;;;;2078831;28;20622;-45
2021/03/19 03:03:25;;;;;;;3.33;3.03;;;;;20.50;100868.00;;;;2078674;28;20206;-45
2021/03/19 03:04:26;;;;;;;3.27;2.97;;;;;20.50;100869.00;;;;2077747;28;20197;-45
2021/03/19 03:05:26;;;;;;;4.37;3.30;;;;;20.50;100870.00;;;;2078458;28;20599;-44
2021/03/19 03:06:50;;;;;;;3.57;3.27;;;;;20.50;100880.00;;;;2078430;28;20213;-49
2021/03/19 03:07:50;;;;;;;4.22;3.38;;;;;20.50;100885.00;;;;2078682;28;20245;-45
2021/03/19 03:08:51;;;;;;;3.40;3.13;;;;;20.50;100893.00;;;;2077744;28;20217;-49
2021/03/19 03:09:52;;;;;;;3.80;3.50;;;;;20.50;100889.00;;;;2078841;28;20245;-46
2021/03/19 03:10:52;;;;;;;3.30;3.00;;;;;20.50;100899.00;;;;2078832;28;20218;-45
2021/03/19 03:11:53;;;;;;;2.93;2.63;;;;;20.50;100900.00;;;;2078874;28;20468;-48
2021/03/19 03:12:54;;;;;;;3.07;2.60;;;;;20.50;100908.00;;;;2078676;28;20467;-45
2021/03/19 03:13:54;;;;;;;3.63;3.30;;;;;20.50;100905.00;;;;2078812;28;20304;-46
2021/03/19 03:14:54;;;;;;;3.33;2.77;;;;;20.50;100915.00;;;;2078679;28;20710;-46
2021/03/19 03:15:55;;;;;;;3.00;2.70;;;;;20.50;100909.00;;;;2078547;28;20272;-47
2021/03/19 03:16:59;;;;;;;3.10;2.83;;;;;20.50;100924.00;;;;2078970;28;20218;-47
2021/03/19 03:18:00;;;;;;;3.10;2.90;;;;;20.50;100912.00;;;;2077238;28;20328;-44
2021/03/19 03:19:00;;;;;;;3.13;2.93;;;;;20.50;100920.00;;;;2078025;28;20660;-45
2021/03/19 03:20:01;;;;;;;2.83;2.60;;;;;20.50;100919.00;;;;2078907;28;20217;-45
2021/03/19 03:21:01;;;;;;;3.30;3.00;;;;;20.50;100916.00;;;;2078872;28;20221;-47
2021/03/19 03:22:02;;;;;;;3.00;2.80;;;;;20.50;100915.00;;;;2078634;28;20361;-44
2021/03/19 03:23:03;;;;;;;3.20;2.90;;;;;20.50;100918.00;;;;2078905;28;20222;-45
2021/03/19 03:24:03;;;;;;;2.90;2.63;;;;;20.40;100909.00;;;;2078934;28;20214;-48
2021/03/19 03:25:04;;;;;;;3.23;2.93;;;;;20.50;100917.00;;;;2078757;28;20456;-45
2021/03/19 03:26:05;;;;;;;2.70;2.50;;;;;20.40;100918.00;;;;2078641;28;21272;-47
2021/03/19 03:27:07;;;;;;;3.90;2.87;;;;;20.40;100922.00;;;;2079002;28;20464;-49
2021/03/19 03:28:08;;;;;;;2.78;2.58;;;;;20.50;100927.00;;;;2077458;28;20226;-47
2021/03/19 03:29:09;;;;;;;3.13;2.93;;;;;20.50;100932.00;;;;2078423;28;20221;-45
2021/03/19 03:30:35;;;;;;;3.13;2.80;;;;;20.40;100930.00;;;;2078599;28;20222;-49
2021/03/19 03:31:37;;;;;;;2.92;2.72;;;;;20.40;100924.00;;;;2078710;28;20225;-46
2021/03/19 03:32:38;;;;;;;2.83;2.60;;;;;20.40;100931.00;;;;2078431;28;20283;-49
2021/03/19 03:33:38;;;;;;;3.33;2.50;;;;;20.50;100929.00;;;;2077984;28;20657;-49
2021/03/19 03:34:38;;;;;;;2.90;2.70;;;;;20.40;100926.00;;;;2078798;28;20256;-48
2021/03/19 03:35:39;;;;;;;3.13;2.83;;;;;20.40;100930.00;;;;2078643;28;20218;-47
2021/03/19 03:36:40;;;;;;;2.93;2.63;;;;;20.40;100928.00;;;;2078641;28;20229;-49
2021/03/19 03:37:40;;;;;;;3.70;3.40;;;;;20.40;100930.00;;;;2078591;28;20213;-46
2021/03/19 03:38:40;;;;;;;3.43;3.13;;;;;20.40;100932.00;;;;2077288;28;20206;-46
2021/03/19 03:39:41;;;;;;;2.70;2.50;;;;;20.40;100937.00;;;;2078732;28;20221;-44
2021/03/19 03:40:49;;;;;;;3.10;2.83;;;;;20.40;100936.00;;;;2078848;28;20555;-43
2021/03/19 03:41:49;;;;;;;3.20;3.00;;;;;20.40;100936.00;;;;2078374;28;20437;-46
2021/03/19 03:42:49;;;;;;;4.47;3.13;;;;;20.40;100949.00;;;;2078466;28;20703;-47
2021/03/19 03:43:50;;;;;;;3.43;3.13;;;;;20.40;100939.00;;;;2078700;28;20225;-49
2021/03/19 03:44:50;;;;;;;3.77;3.40;;;;;20.40;100930.00;;;;2078550;28;20268;-47
2021/03/19 03:45:51;;;;;;;3.00;2.80;;;;;20.40;100938.00;;;;2078625;28;20213;-45
2021/03/19 03:46:51;;;;;;;3.73;3.23;;;;;20.40;100944.00;;;;2078612;28;20301;-45
2021/03/19 03:47:51;;;;;;;3.63;3.10;;;;;20.40;100941.00;;;;2078475;28;20210;-46
2021/03/19 03:48:56;;;;;;;3.47;3.17;;;;;20.40;100948.00;;;;2077621;28;20615;-48
2021/03/19 03:49:56;;;;;;;3.53;3.20;;;;;20.40;100941.00;;;;2078328;28;20217;-45
2021/03/19 03:50:58;;;;;;;3.53;2.87;;;;;20.40;100950.00;;;;2078319;28;20210;-44
2021/03/19 03:51:58;;;;;;;3.72;3.42;;;;;20.40;100944.00;;;;2078122;28;20602;-47
2021/03/19 03:52:58;;;;;;;3.67;3.20;;;;;20.40;100943.00;;;;2078548;28;20218;-45
2021/03/19 03:53:59;;;;;;;3.97;3.57;;;;;20.40;100944.00;;;;2078639;28;20675;-45
2021/03/19 03:54:59;;;;;;;2.87;2.67;;;;;20.40;100943.00;;;;2078553;28;20214;-44
2021/03/19 03:55:59;;;;;;;3.77;3.47;;;;;20.40;100952.00;;;;2078713;28;20221;-46
2021/03/19 03:57:00;;;;;;;3.40;3.10;;;;;20.40;100951.00;;;;2078634;28;20273;-48
2021/03/19 03:58:01;;;;;;;3.63;3.33;;;;;20.40;100956.00;;;;2077561;28;20702;-47
2021/03/19 03:59:01;;;;;;;3.83;3.20;;;;;20.40;100958.00;;;;2078176;28;20230;-45
2021/03/19 04:00:05;;;;;;;3.10;2.90;;;;;20.40;100954.00;;;;2078066;28;20213;-45
2021/03/19 04:01:06;;;;;;;3.67;3.38;;;;;20.40;100957.00;;;;2077915;28;20225;-44
2021/03/19 04:02:21;;;;;;;3.67;3.37;;;;;20.40;100955.00;;;;2077621;28;20210;-46
2021/03/19 04:03:21;;;;;;;2.90;2.70;;;;;20.30;100957.00;;;;2078266;28;20213;-44
2021/03/19 04:04:22;;;;;;;3.83;3.10;;;;;20.40;100961.00;;;;2078622;28;20251;-45
2021/03/19 04:05:25;;;;;;;3.50;3.20;;;;;20.30;100969.00;;;;2078635;28;20687;-49
2021/03/19 04:06:25;;;;;;;3.33;3.03;;;;;20.30;100961.00;;;;2078384;28;20237;-44
2021/03/19 04:07:25;;;;;;;2.93;2.70;;;;;20.30;100964.00;;;;2078617;28;20210;-45
2021/03/19 04:08:27;;;;;;;3.70;3.20;;;;;20.30;100969.00;;;;2077355;28;20206;-44
2021/03/19 04:09:27;;;;;;;3.55;3.35;;;;;20.30;100976.00;;;;2078636;28;20206;-44
2021/03/19 04:10:28;;;;;;;3.13;2.90;;;;;20.30;100969.00;;;;2078286;28;20954;-47
2021/03/19 04:11:28;;;;;;;3.20;2.90;;;;;20.30;100975.00;;;;2077294;28;20233;-45
2021/03/19 04:12:29;;;;;;;3.30;3.00;;;;;20.30;100964.00;;;;2077706;28;20210;-47
2021/03/19 04:13:29;;;;;;;3.77;3.47;;;;;20.30;100964.00;;;;2077488;28;20222;-47
2021/03/19 04:14:30;;;;;;;3.17;2.97;;;;;20.30;100972.00;;;;2078037;28;20214;-47
2021/03/19 04:15:30;;;;;;;3.53;3.23;;;;;20.30;100968.00;;;;2069742;28;20453;-46
2021/03/19 04:16:31;;;;;;;3.10;2.90;;;;;20.30;100972.00;;;;2085241;28;20217;-49
2021/03/19 04:17:32;;;;;;;3.70;3.27;;;;;20.30;100975.00;;;;2084704;28;20201;-46
2021/03/19 04:18:32;;;;;;;3.53;3.20;;;;;20.30;100973.00;;;;2076999;28;20225;-44
2021/03/19 04:19:33;;;;;;;3.40;3.10;;;;;20.30;100973.00;;;;2078336;28;20214;-49
2021/03/19 04:20:33;;;;;;;3.67;3.37;;;;;20.30;100974.00;;;;2077821;28;20217;-45
2021/03/19 04:21:34;;;;;;;3.33;3.03;;;;;20.30;100980.00;;;;2078264;28;20214;-44
2021/03/19 04:22:34;;;;;;;3.50;3.20;;;;;20.30;100979.00;;;;2077244;28;20230;-44
2021/03/19 04:23:37;;;;;;;3.60;2.93;;;;;20.30;100983.00;;;;2078101;28;20217;-44
2021/03/19 04:24:37;;;;;;;3.50;3.20;;;;;20.30;100979.00;;;;2077814;28;20726;-50
2021/03/19 04:25:38;;;;;;;3.90;3.47;;;;;20.30;100985.00;;;;2078068;28;20230;-46
2021/03/19 04:26:38;;;;;;;3.60;3.30;;;;;20.30;100979.00;;;;2078079;28;20214;-45
2021/03/19 04:27:50;;;;;;;4.20;3.50;;;;;20.30;100978.00;;;;2077229;28;20298;-50
2021/03/19 04:28:51;;;;;;;3.25;3.05;;;;;20.30;100985.00;;;;2076290;28;20694;-44
2021/03/19 04:29:54;;;;;;;3.88;3.33;;;;;20.30;100984.00;;;;2069082;28;20226;-47
2021/03/19 04:30:54;;;;;;;3.70;3.40;;;;;20.30;100982.00;;;;2053018;28;20235;-44
2021/03/19 04:31:55;;;;;;;3.50;3.20;;;;;20.30;100985.00;;;;2061184;28;20218;-45
2021/03/19 04:32:55;;;;;;;3.50;3.20;;;;;20.20;100980.00;;;;2061769;28;20215;-45
2021/03/19 04:33:55;;;;;;;3.73;3.43;;;;;20.20;100987.00;;;;2061924;28;20265;-47
2021/03/19 04:34:56;;;;;;;3.50;3.20;;;;;20.20;100985.00;;;;2062273;28;20212;-45
2021/03/19 04:36:21;;;;;;;3.80;3.50;;;;;20.20;100995.00;;;;2062176;28;20230;-44
2021/03/19 04:37:22;;;;;;;3.92;3.53;;;;;20.30;100984.00;;;;2062425;28;20589;-45
2021/03/19 04:38:22;;;;;;;3.60;3.30;;;;;20.20;100991.00;;;;2060932;28;20219;-44
2021/03/19 04:39:25;;;;;;;3.60;3.30;;;;;20.20;100988.00;;;;2061580;28;20651;-44
2021/03/19 04:40:26;;;;;;;3.45;3.15;;;;;20.20;100992.00;;;;2067840;28;20227;-47
2021/03/19 04:41:27;;;;;;;3.10;2.80;;;;;20.20;100991.00;;;;2070450;28;20284;-45
2021/03/19 04:42:28;;;;;;;3.90;3.60;;;;;20.20;100987.00;;;;2069236;28;20214;-49
2021/03/19 04:43:28;;;;;;;3.50;3.20;;;;;20.20;100978.00;;;;2069420;28;20687;-45
2021/03/19 04:44:30;;;;;;;2.70;2.50;;;;;20.20;100977.00;;;;2077820;28;20237;-48
2021/03/19 04:45:31;;;;;;;2.90;2.70;;;;;20.20;100988.00;;;;2070069;28;20241;-45
2021/03/19 04:46:31;;;;;;;3.33;3.03;;;;;20.20;100987.00;;;;2069338;28;20308;-45
2021/03/19 04:47:31;;;;;;;3.70;3.40;;;;;20.20;100984.00;;;;2061582;28;20240;-48
2021/03/19 04:48:32;;;;;;;4.00;3.60;;;;;20.20;100985.00;;;;2068501;28;20607;-45
2021/03/19 04:49:33;;;;;;;3.60;2.87;;;;;20.20;100985.00;;;;2070359;28;20683;-45
2021/03/19 04:50:33;;;;;;;3.93;3.47;;;;;20.20;100988.00;;;;2070210;28;20215;-44
2021/03/19 04:51:34;;;;;;;4.47;3.57;;;;;20.20;100991.00;;;;2070165;28;20215;-49
2021/03/19 04:52:34;;;;;;;3.70;3.40;;;;;20.20;100993.00;;;;2070284;28;20891;-45
2021/03/19 04:53:34;;;;;;;3.50;3.20;;;;;20.20;100992.00;;;;2069594;28;20317;-45
2021/03/19 04:54:35;;;;;;;3.33;3.07;;;;;20.20;100995.00;;;;2069470;28;20742;-45
2021/03/19 04:55:35;;;;;;;3.90;3.60;;;;;20.20;100996.00;;;;2070334;28;20219;-45
2021/03/19 04:56:36;;;;;;;3.50;3.10;;;;;20.20;101004.00;;;;2069275;28;20651;-49
2021/03/19 04:57:36;;;;;;;3.60;3.17;;;;;20.20;101005.00;;;;2075676;28;20694;-47
2021/03/19 04:58:36;;;;;;;3.80;3.40;;;;;20.20;101000.00;;;;2077014;28;20301;-45
2021/03/19 04:59:37;;;;;;;3.50;3.20;;;;;20.20;101008.00;;;;2078404;28;20210;-44
2021/03/19 05:00:37;;;;;;;3.20;2.90;;;;;20.20;101011.00;;;;2078101;28;20226;-49
2021/03/19 05:01:48;;;;;;;3.27;2.97;;;;;20.20;101003.00;;;;2078355;28;20587;-45
2021/03/19 05:02:49;;;;;;;3.20;2.90;;;;;20.20;101024.00;;;;2079244;28;20221;-47
2021/03/19 05:03:49;;;;;;;3.37;3.07;;;;;20.20;101006.00;;;;2079932;28;20674;-49
2021/03/19 05:04:49;;;;;;;3.20;2.93;;;;;20.20;101011.00;;;;2079898;28;20448;-46
2021/03/19 05:05:50;;;;;;;3.37;3.07;;;;;20.20;101010.00;;;;2079763;28;20213;-45
2021/03/19 05:06:52;;;;;;;3.37;3.07;;;;;20.20;101009.00;;;;2079927;28;20281;-49
2021/03/19 05:07:54;;;;;;;3.03;2.72;;;;;20.10;101007.00;;;;2080126;28;20216;-45
2021/03/19 05:08:54;;;;;;;3.63;3.30;;;;;20.10;101012.00;;;;2079048;28;20228;-48
2021/03/19 05:09:55;;;;;;;4.03;3.67;;;;;20.20;101015.00;;;;2079739;28;20260;-46
2021/03/19 05:10:55;;;;;;;3.27;2.97;;;;;20.10;101013.00;;;;2078835;28;20209;-45
2021/03/19 05:11:55;;;;;;;3.30;3.00;;;;;20.20;101023.00;;;;2079915;28;20582;-44
2021/03/19 05:12:56;;;;;;;2.90;2.70;;;;;20.10;101018.00;;;;2079463;28;20229;-46
2021/03/19 05:13:56;;;;;;;4.00;2.90;;;;;20.10;101021.00;;;;2080022;28;20218;-47
2021/03/19 05:14:56;;;;;;;2.97;2.73;;;;;20.10;101027.00;;;;2079650;28;20348;-48
2021/03/19 05:15:57;;;;;;;3.37;3.10;;;;;20.10;101030.00;;;;2080043;28;20210;-45
2021/03/19 05:16:57;;;;;;;3.47;3.17;;;;;20.10;101030.00;;;;2079879;28;20225;-48
2021/03/19 05:17:58;;;;;;;3.17;2.87;;;;;20.10;101035.00;;;;2078049;28;20218;-45
2021/03/19 05:18:58;;;;;;;3.60;3.30;;;;;20.10;101025.00;;;;2079746;28;20222;-45
2021/03/19 05:19:58;;;;;;;2.77;2.53;;;;;20.10;101034.00;;;;2079900;28;20275;-49
2021/03/19 05:20:59;;;;;;;3.30;3.00;;;;;20.10;101044.00;;;;2079697;28;20214;-47